Terminal Aerodrome Forecast
Issued by NWS

Home | Current Version | Previous Version | Text Only | Print | Product List | Glossary On
Versions: 1 2 3 4 5 6 7 8 9 10 11 12 13 14 15 16 17 18 19 20 21
000
FTUS46 KLOX 051700
TAFBUR
TAF
KBUR 051736Z 0518/0618 16005KT P6SM BKN018 OVC024
     FM052000 18009KT P6SM BKN035
     FM060400 16005KT P6SM BKN017
     FM060900 VRB03KT P6SM OVC022=

USA.gov is the U.S. government's official web portal to all federal, state and local government web resources and services.